sensor_id;sensor_type;location;lat;lon;timestamp;P1;durP1;ratioP1;P2;durP2;ratioP2
37633;SDS011;32048;49.902;22.508;2023-10-13T00:00:41;18.50;;;10.82;;
37633;SDS011;32048;49.902;22.508;2023-10-13T00:03:29;19.73;;;9.48;;
37633;SDS011;32048;49.902;22.508;2023-10-13T00:05:58;18.20;;;8.65;;
37633;SDS011;32048;49.902;22.508;2023-10-13T00:08:29;20.83;;;9.02;;
37633;SDS011;32048;49.902;22.508;2023-10-13T00:10:56;22.55;;;10.20;;
37633;SDS011;32048;49.902;22.508;2023-10-13T00:13:27;14.73;;;8.48;;
37633;SDS011;32048;49.902;22.508;2023-10-13T00:15:54;18.25;;;9.40;;
37633;SDS011;32048;49.902;22.508;2023-10-13T00:18:26;15.85;;;8.80;;
37633;SDS011;32048;49.902;22.508;2023-10-13T00:21:01;16.10;;;8.73;;
37633;SDS011;32048;49.902;22.508;2023-10-13T00:23:52;20.23;;;9.23;;
37633;SDS011;32048;49.902;22.508;2023-10-13T00:26:20;19.35;;;9.32;;
37633;SDS011;32048;49.902;22.508;2023-10-13T00:28:55;19.08;;;8.80;;
37633;SDS011;32048;49.902;22.508;2023-10-13T00:31:27;18.45;;;9.07;;
37633;SDS011;32048;49.902;22.508;2023-10-13T00:34:00;15.55;;;8.43;;
37633;SDS011;32048;49.902;22.508;2023-10-13T00:36:31;19.90;;;9.55;;
37633;SDS011;32048;49.902;22.508;2023-10-13T00:39:01;16.27;;;9.15;;
37633;SDS011;32048;49.902;22.508;2023-10-13T00:41:30;18.88;;;9.43;;
37633;SDS011;32048;49.902;22.508;2023-10-13T00:44:16;18.52;;;10.38;;
37633;SDS011;32048;49.902;22.508;2023-10-13T00:46:43;16.42;;;9.10;;
37633;SDS011;32048;49.902;22.508;2023-10-13T00:49:12;18.45;;;9.48;;
37633;SDS011;32048;49.902;22.508;2023-10-13T00:51:42;17.83;;;10.75;;
37633;SDS011;32048;49.902;22.508;2023-10-13T00:54:14;21.23;;;10.63;;
37633;SDS011;32048;49.902;22.508;2023-10-13T00:56:45;18.27;;;9.68;;
37633;SDS011;32048;49.902;22.508;2023-10-13T01:01:52;17.88;;;9.88;;
37633;SDS011;32048;49.902;22.508;2023-10-13T01:04:22;20.90;;;10.13;;
37633;SDS011;32048;49.902;22.508;2023-10-13T01:06:54;19.80;;;12.05;;
37633;SDS011;32048;49.902;22.508;2023-10-13T01:09:21;22.63;;;11.23;;
37633;SDS011;32048;49.902;22.508;2023-10-13T01:11:51;15.07;;;9.80;;
37633;SDS011;32048;49.902;22.508;2023-10-13T01:14:22;22.95;;;10.30;;
37633;SDS011;32048;49.902;22.508;2023-10-13T01:16:55;18.67;;;10.45;;
37633;SDS011;32048;49.902;22.508;2023-10-13T01:19:25;18.63;;;10.13;;
37633;SDS011;32048;49.902;22.508;2023-10-13T01:21:54;19.52;;;11.00;;
37633;SDS011;32048;49.902;22.508;2023-10-13T01:24:30;18.30;;;10.02;;
37633;SDS011;32048;49.902;22.508;2023-10-13T01:27:04;20.65;;;10.35;;
37633;SDS011;32048;49.902;22.508;2023-10-13T01:29:52;16.92;;;10.80;;
37633;SDS011;32048;49.902;22.508;2023-10-13T01:32:25;20.10;;;10.77;;
37633;SDS011;32048;49.902;22.508;2023-10-13T01:34:53;16.50;;;10.35;;
37633;SDS011;32048;49.902;22.508;2023-10-13T01:39:49;23.40;;;11.75;;
37633;SDS011;32048;49.902;22.508;2023-10-13T01:42:17;22.55;;;10.43;;
37633;SDS011;32048;49.902;22.508;2023-10-13T01:44:49;23.25;;;11.32;;
37633;SDS011;32048;49.902;22.508;2023-10-13T01:47:16;17.40;;;10.43;;
37633;SDS011;32048;49.902;22.508;2023-10-13T01:49:44;23.40;;;11.57;;
37633;SDS011;32048;49.902;22.508;2023-10-13T01:52:14;19.15;;;11.25;;
37633;SDS011;32048;49.902;22.508;2023-10-13T01:54:43;15.75;;;10.60;;
37633;SDS011;32048;49.902;22.508;2023-10-13T01:57:16;22.50;;;11.13;;
37633;SDS011;32048;49.902;22.508;2023-10-13T01:59:51;17.40;;;10.38;;
37633;SDS011;32048;49.902;22.508;2023-10-13T02:02:18;19.70;;;11.18;;
37633;SDS011;32048;49.902;22.508;2023-10-13T02:04:56;19.98;;;11.13;;
37633;SDS011;32048;49.902;22.508;2023-10-13T02:07:27;22.30;;;11.23;;
37633;SDS011;32048;49.902;22.508;2023-10-13T02:09:57;17.73;;;9.82;;
37633;SDS011;32048;49.902;22.508;2023-10-13T02:12:25;22.30;;;10.95;;
37633;SDS011;32048;49.902;22.508;2023-10-13T02:15:03;20.42;;;10.65;;
37633;SDS011;32048;49.902;22.508;2023-10-13T02:17:31;18.85;;;9.80;;
37633;SDS011;32048;49.902;22.508;2023-10-13T02:20:07;18.50;;;10.55;;
37633;SDS011;32048;49.902;22.508;2023-10-13T02:22:41;18.35;;;11.60;;
37633;SDS011;32048;49.902;22.508;2023-10-13T02:25:16;21.85;;;11.68;;
37633;SDS011;32048;49.902;22.508;2023-10-13T02:28:02;22.65;;;10.80;;
37633;SDS011;32048;49.902;22.508;2023-10-13T02:30:29;18.75;;;10.35;;
37633;SDS011;32048;49.902;22.508;2023-10-13T02:32:56;23.00;;;11.82;;
37633;SDS011;32048;49.902;22.508;2023-10-13T02:35:24;19.77;;;10.85;;
37633;SDS011;32048;49.902;22.508;2023-10-13T02:37:56;21.25;;;11.13;;
37633;SDS011;32048;49.902;22.508;2023-10-13T02:40:25;16.58;;;10.55;;
37633;SDS011;32048;49.902;22.508;2023-10-13T02:42:52;25.00;;;12.95;;
37633;SDS011;32048;49.902;22.508;2023-10-13T02:45:19;21.05;;;10.43;;
37633;SDS011;32048;49.902;22.508;2023-10-13T02:47:52;21.02;;;11.13;;
37633;SDS011;32048;49.902;22.508;2023-10-13T02:50:38;19.85;;;11.60;;
37633;SDS011;32048;49.902;22.508;2023-10-13T02:53:09;19.35;;;11.07;;
37633;SDS011;32048;49.902;22.508;2023-10-13T02:55:50;21.90;;;12.13;;
37633;SDS011;32048;49.902;22.508;2023-10-13T02:58:20;22.77;;;11.95;;
37633;SDS011;32048;49.902;22.508;2023-10-13T03:00:47;18.85;;;11.05;;
37633;SDS011;32048;49.902;22.508;2023-10-13T03:03:15;24.70;;;11.85;;
37633;SDS011;32048;49.902;22.508;2023-10-13T03:05:45;20.95;;;10.70;;
37633;SDS011;32048;49.902;22.508;2023-10-13T03:08:12;26.55;;;12.55;;
37633;SDS011;32048;49.902;22.508;2023-10-13T03:10:45;19.10;;;10.75;;
37633;SDS011;32048;49.902;22.508;2023-10-13T03:13:15;21.25;;;11.75;;
37633;SDS011;32048;49.902;22.508;2023-10-13T03:15:42;20.20;;;10.48;;
37633;SDS011;32048;49.902;22.508;2023-10-13T03:18:14;21.67;;;11.80;;
37633;SDS011;32048;49.902;22.508;2023-10-13T03:20:45;23.13;;;10.75;;
37633;SDS011;32048;49.902;22.508;2023-10-13T03:23:17;25.45;;;11.27;;
37633;SDS011;32048;49.902;22.508;2023-10-13T03:25:44;21.25;;;12.18;;
37633;SDS011;32048;49.902;22.508;2023-10-13T03:28:16;22.20;;;11.63;;
37633;SDS011;32048;49.902;22.508;2023-10-13T03:30:47;17.52;;;11.05;;
37633;SDS011;32048;49.902;22.508;2023-10-13T03:33:19;21.98;;;12.02;;
37633;SDS011;32048;49.902;22.508;2023-10-13T03:35:53;22.27;;;12.00;;
37633;SDS011;32048;49.902;22.508;2023-10-13T03:38:32;23.58;;;12.45;;
37633;SDS011;32048;49.902;22.508;2023-10-13T03:41:03;27.48;;;11.45;;
37633;SDS011;32048;49.902;22.508;2023-10-13T03:43:47;22.40;;;10.98;;
37633;SDS011;32048;49.902;22.508;2023-10-13T03:46:36;18.25;;;11.20;;
37633;SDS011;32048;49.902;22.508;2023-10-13T03:49:08;19.00;;;11.13;;
37633;SDS011;32048;49.902;22.508;2023-10-13T03:51:39;20.77;;;11.45;;
37633;SDS011;32048;49.902;22.508;2023-10-13T03:54:06;22.85;;;12.40;;
37633;SDS011;32048;49.902;22.508;2023-10-13T03:56:35;19.05;;;12.00;;
37633;SDS011;32048;49.902;22.508;2023-10-13T03:59:07;16.30;;;10.82;;
37633;SDS011;32048;49.902;22.508;2023-10-13T04:01:47;20.83;;;11.15;;
37633;SDS011;32048;49.902;22.508;2023-10-13T04:04:15;21.38;;;11.27;;
37633;SDS011;32048;49.902;22.508;2023-10-13T04:07:01;18.50;;;9.77;;
37633;SDS011;32048;49.902;22.508;2023-10-13T04:12:28;18.90;;;9.63;;
37633;SDS011;32048;49.902;22.508;2023-10-13T04:15:14;20.38;;;9.98;;
37633;SDS011;32048;49.902;22.508;2023-10-13T04:17:44;19.45;;;11.88;;
37633;SDS011;32048;49.902;22.508;2023-10-13T04:20:13;17.67;;;9.93;;
37633;SDS011;32048;49.902;22.508;2023-10-13T04:22:46;17.77;;;10.98;;
37633;SDS011;32048;49.902;22.508;2023-10-13T04:28:03;20.35;;;10.45;;
37633;SDS011;32048;49.902;22.508;2023-10-13T04:33:15;17.75;;;9.48;;
37633;SDS011;32048;49.902;22.508;2023-10-13T04:38:52;17.70;;;9.88;;
37633;SDS011;32048;49.902;22.508;2023-10-13T04:41:33;17.75;;;10.60;;
37633;SDS011;32048;49.902;22.508;2023-10-13T04:44:16;14.00;;;9.50;;
37633;SDS011;32048;49.902;22.508;2023-10-13T04:46:50;15.50;;;9.65;;
37633;SDS011;32048;49.902;22.508;2023-10-13T04:49:40;21.85;;;10.13;;
37633;SDS011;32048;49.902;22.508;2023-10-13T04:52:10;20.92;;;11.30;;
37633;SDS011;32048;49.902;22.508;2023-10-13T04:57:15;23.23;;;11.52;;
37633;SDS011;32048;49.902;22.508;2023-10-13T05:00:13;21.13;;;11.57;;
37633;SDS011;32048;49.902;22.508;2023-10-13T05:02:44;17.33;;;10.65;;
37633;SDS011;32048;49.902;22.508;2023-10-13T05:05:27;21.55;;;10.05;;
37633;SDS011;32048;49.902;22.508;2023-10-13T05:08:13;17.13;;;10.07;;
37633;SDS011;32048;49.902;22.508;2023-10-13T05:11:05;16.70;;;10.13;;
37633;SDS011;32048;49.902;22.508;2023-10-13T05:13:51;21.60;;;11.07;;
37633;SDS011;32048;49.902;22.508;2023-10-13T05:16:36;19.23;;;9.65;;
37633;SDS011;32048;49.902;22.508;2023-10-13T05:19:21;16.60;;;10.23;;
37633;SDS011;32048;49.902;22.508;2023-10-13T05:22:07;17.55;;;9.52;;
37633;SDS011;32048;49.902;22.508;2023-10-13T05:24:53;18.70;;;9.95;;
37633;SDS011;32048;49.902;22.508;2023-10-13T05:27:39;19.50;;;9.23;;
37633;SDS011;32048;49.902;22.508;2023-10-13T05:30:24;14.23;;;8.77;;
37633;SDS011;32048;49.902;22.508;2023-10-13T05:33:10;17.35;;;10.55;;
37633;SDS011;32048;49.902;22.508;2023-10-13T05:35:56;14.52;;;8.57;;
37633;SDS011;32048;49.902;22.508;2023-10-13T05:38:41;16.63;;;7.57;;
37633;SDS011;32048;49.902;22.508;2023-10-13T05:41:27;14.30;;;7.50;;
37633;SDS011;32048;49.902;22.508;2023-10-13T05:44:13;14.90;;;7.40;;
37633;SDS011;32048;49.902;22.508;2023-10-13T05:46:59;12.05;;;7.10;;
37633;SDS011;32048;49.902;22.508;2023-10-13T05:49:44;9.48;;;6.72;;
37633;SDS011;32048;49.902;22.508;2023-10-13T05:52:20;14.27;;;8.55;;
37633;SDS011;32048;49.902;22.508;2023-10-13T05:55:07;13.85;;;8.05;;
37633;SDS011;32048;49.902;22.508;2023-10-13T05:57:53;11.90;;;5.90;;
37633;SDS011;32048;49.902;22.508;2023-10-13T06:00:39;11.32;;;4.95;;
37633;SDS011;32048;49.902;22.508;2023-10-13T06:03:25;8.65;;;4.85;;
37633;SDS011;32048;49.902;22.508;2023-10-13T06:06:11;8.50;;;4.15;;
37633;SDS011;32048;49.902;22.508;2023-10-13T06:08:57;7.55;;;4.30;;
37633;SDS011;32048;49.902;22.508;2023-10-13T06:11:42;7.35;;;4.15;;
37633;SDS011;32048;49.902;22.508;2023-10-13T06:14:28;18.10;;;5.30;;
37633;SDS011;32048;49.902;22.508;2023-10-13T06:17:14;18.73;;;6.45;;
37633;SDS011;32048;49.902;22.508;2023-10-13T06:20:00;10.68;;;4.70;;
37633;SDS011;32048;49.902;22.508;2023-10-13T06:22:48;9.25;;;4.70;;
37633;SDS011;32048;49.902;22.508;2023-10-13T06:25:34;11.48;;;5.07;;
37633;SDS011;32048;49.902;22.508;2023-10-13T06:28:28;8.93;;;4.28;;
37633;SDS011;32048;49.902;22.508;2023-10-13T06:31:08;8.52;;;4.95;;
37633;SDS011;32048;49.902;22.508;2023-10-13T06:33:49;9.65;;;5.78;;
37633;SDS011;32048;49.902;22.508;2023-10-13T06:36:16;10.23;;;5.60;;
37633;SDS011;32048;49.902;22.508;2023-10-13T06:38:44;12.97;;;6.50;;
37633;SDS011;32048;49.902;22.508;2023-10-13T06:41:19;12.10;;;4.85;;
37633;SDS011;32048;49.902;22.508;2023-10-13T06:43:57;5.38;;;3.92;;
37633;SDS011;32048;49.902;22.508;2023-10-13T06:46:27;10.32;;;4.95;;
37633;SDS011;32048;49.902;22.508;2023-10-13T06:48:56;6.57;;;4.10;;
37633;SDS011;32048;49.902;22.508;2023-10-13T06:51:27;10.73;;;4.10;;
37633;SDS011;32048;49.902;22.508;2023-10-13T06:53:58;9.23;;;4.05;;
37633;SDS011;32048;49.902;22.508;2023-10-13T06:56:25;6.75;;;3.50;;
37633;SDS011;32048;49.902;22.508;2023-10-13T06:58:56;8.23;;;3.90;;
37633;SDS011;32048;49.902;22.508;2023-10-13T07:01:27;8.30;;;3.63;;
37633;SDS011;32048;49.902;22.508;2023-10-13T07:03:54;6.78;;;3.90;;
37633;SDS011;32048;49.902;22.508;2023-10-13T07:06:28;7.63;;;3.65;;
37633;SDS011;32048;49.902;22.508;2023-10-13T07:08:58;7.85;;;4.35;;
37633;SDS011;32048;49.902;22.508;2023-10-13T07:11:30;11.77;;;4.55;;
37633;SDS011;32048;49.902;22.508;2023-10-13T07:14:01;7.72;;;4.07;;
37633;SDS011;32048;49.902;22.508;2023-10-13T07:16:44;9.80;;;4.00;;
37633;SDS011;32048;49.902;22.508;2023-10-13T07:19:25;11.15;;;4.85;;
37633;SDS011;32048;49.902;22.508;2023-10-13T07:21:57;8.73;;;3.88;;
37633;SDS011;32048;49.902;22.508;2023-10-13T07:24:26;7.38;;;3.50;;
37633;SDS011;32048;49.902;22.508;2023-10-13T07:27:06;10.48;;;3.70;;
37633;SDS011;32048;49.902;22.508;2023-10-13T07:29:34;4.97;;;3.25;;
37633;SDS011;32048;49.902;22.508;2023-10-13T07:32:02;6.70;;;3.67;;
37633;SDS011;32048;49.902;22.508;2023-10-13T07:34:30;9.35;;;3.20;;
37633;SDS011;32048;49.902;22.508;2023-10-13T07:37:02;9.55;;;3.50;;
37633;SDS011;32048;49.902;22.508;2023-10-13T07:39:34;6.95;;;3.53;;
37633;SDS011;32048;49.902;22.508;2023-10-13T07:42:02;10.20;;;3.87;;
37633;SDS011;32048;49.902;22.508;2023-10-13T07:44:33;6.80;;;3.40;;
37633;SDS011;32048;49.902;22.508;2023-10-13T07:47:01;8.80;;;3.30;;
37633;SDS011;32048;49.902;22.508;2023-10-13T07:49:36;9.40;;;3.67;;
37633;SDS011;32048;49.902;22.508;2023-10-13T07:52:05;10.25;;;4.45;;
37633;SDS011;32048;49.902;22.508;2023-10-13T07:54:52;7.13;;;3.70;;
37633;SDS011;32048;49.902;22.508;2023-10-13T07:57:39;5.78;;;3.28;;
37633;SDS011;32048;49.902;22.508;2023-10-13T08:00:23;5.28;;;3.13;;
37633;SDS011;32048;49.902;22.508;2023-10-13T08:03:09;5.63;;;3.45;;
37633;SDS011;32048;49.902;22.508;2023-10-13T08:05:56;8.40;;;3.70;;
37633;SDS011;32048;49.902;22.508;2023-10-13T08:08:34;9.68;;;3.72;;
37633;SDS011;32048;49.902;22.508;2023-10-13T08:11:11;9.18;;;3.70;;
37633;SDS011;32048;49.902;22.508;2023-10-13T08:13:39;10.82;;;3.85;;
37633;SDS011;32048;49.902;22.508;2023-10-13T08:16:29;8.07;;;4.03;;
37633;SDS011;32048;49.902;22.508;2023-10-13T08:19:16;10.13;;;4.68;;
37633;SDS011;32048;49.902;22.508;2023-10-13T08:21:45;5.90;;;3.28;;
37633;SDS011;32048;49.902;22.508;2023-10-13T08:24:18;10.00;;;4.63;;
37633;SDS011;32048;49.902;22.508;2023-10-13T08:26:55;12.20;;;3.80;;
37633;SDS011;32048;49.902;22.508;2023-10-13T08:29:46;7.65;;;3.83;;
37633;SDS011;32048;49.902;22.508;2023-10-13T08:32:23;5.45;;;3.00;;
37633;SDS011;32048;49.902;22.508;2023-10-13T08:34:52;8.05;;;3.30;;
37633;SDS011;32048;49.902;22.508;2023-10-13T08:37:20;5.80;;;3.45;;
37633;SDS011;32048;49.902;22.508;2023-10-13T08:39:49;9.30;;;3.78;;
37633;SDS011;32048;49.902;22.508;2023-10-13T08:42:49;9.68;;;3.75;;
37633;SDS011;32048;49.902;22.508;2023-10-13T08:45:38;9.45;;;4.47;;
37633;SDS011;32048;49.902;22.508;2023-10-13T08:48:07;9.32;;;3.25;;
37633;SDS011;32048;49.902;22.508;2023-10-13T08:50:42;9.13;;;3.88;;
37633;SDS011;32048;49.902;22.508;2023-10-13T08:56:08;8.10;;;3.17;;
37633;SDS011;32048;49.902;22.508;2023-10-13T08:58:44;8.60;;;3.08;;
37633;SDS011;32048;49.902;22.508;2023-10-13T09:04:15;6.57;;;3.55;;
37633;SDS011;32048;49.902;22.508;2023-10-13T09:07:03;7.53;;;3.38;;
37633;SDS011;32048;49.902;22.508;2023-10-13T09:12:13;10.57;;;3.25;;
37633;SDS011;32048;49.902;22.508;2023-10-13T09:14:53;6.72;;;3.10;;
37633;SDS011;32048;49.902;22.508;2023-10-13T09:17:25;8.82;;;3.03;;
37633;SDS011;32048;49.902;22.508;2023-10-13T09:22:59;6.13;;;3.20;;
37633;SDS011;32048;49.902;22.508;2023-10-13T09:25:35;8.02;;;3.38;;
37633;SDS011;32048;49.902;22.508;2023-10-13T09:28:21;6.88;;;3.10;;
37633;SDS011;32048;49.902;22.508;2023-10-13T09:30:50;5.53;;;2.80;;
37633;SDS011;32048;49.902;22.508;2023-10-13T09:33:24;7.65;;;3.00;;
37633;SDS011;32048;49.902;22.508;2023-10-13T09:35:59;6.00;;;2.95;;
37633;SDS011;32048;49.902;22.508;2023-10-13T09:38:27;6.72;;;2.88;;
37633;SDS011;32048;49.902;22.508;2023-10-13T09:40:55;7.30;;;3.30;;
37633;SDS011;32048;49.902;22.508;2023-10-13T09:43:25;10.43;;;3.60;;
37633;SDS011;32048;49.902;22.508;2023-10-13T09:45:57;6.93;;;3.10;;
37633;SDS011;32048;49.902;22.508;2023-10-13T09:48:39;7.82;;;3.28;;
37633;SDS011;32048;49.902;22.508;2023-10-13T09:51:13;7.95;;;3.60;;
37633;SDS011;32048;49.902;22.508;2023-10-13T09:57:15;10.80;;;3.35;;
37633;SDS011;32048;49.902;22.508;2023-10-13T09:59:46;5.80;;;3.15;;
37633;SDS011;32048;49.902;22.508;2023-10-13T10:02:19;6.10;;;3.08;;
37633;SDS011;32048;49.902;22.508;2023-10-13T10:07:39;9.90;;;3.70;;
37633;SDS011;32048;49.902;22.508;2023-10-13T10:10:07;9.35;;;3.40;;
37633;SDS011;32048;49.902;22.508;2023-10-13T10:18:02;8.18;;;3.65;;
37633;SDS011;32048;49.902;22.508;2023-10-13T10:20:31;8.00;;;3.50;;
37633;SDS011;32048;49.902;22.508;2023-10-13T10:23:08;8.52;;;4.50;;
37633;SDS011;32048;49.902;22.508;2023-10-13T10:25:44;10.70;;;4.07;;
37633;SDS011;32048;49.902;22.508;2023-10-13T10:28:12;7.50;;;3.40;;
37633;SDS011;32048;49.902;22.508;2023-10-13T10:30:42;8.85;;;4.30;;
37633;SDS011;32048;49.902;22.508;2023-10-13T10:33:11;8.02;;;3.75;;
37633;SDS011;32048;49.902;22.508;2023-10-13T10:35:40;9.18;;;3.80;;
37633;SDS011;32048;49.902;22.508;2023-10-13T10:41:06;7.32;;;3.40;;
37633;SDS011;32048;49.902;22.508;2023-10-13T10:48:57;6.47;;;3.40;;
37633;SDS011;32048;49.902;22.508;2023-10-13T10:51:28;6.00;;;3.50;;
37633;SDS011;32048;49.902;22.508;2023-10-13T10:53:58;7.30;;;4.45;;
37633;SDS011;32048;49.902;22.508;2023-10-13T10:56:38;8.55;;;3.80;;
37633;SDS011;32048;49.902;22.508;2023-10-13T10:59:05;8.98;;;3.33;;
37633;SDS011;32048;49.902;22.508;2023-10-13T11:01:47;5.53;;;3.30;;
37633;SDS011;32048;49.902;22.508;2023-10-13T11:04:14;7.30;;;3.47;;
37633;SDS011;32048;49.902;22.508;2023-10-13T11:06:53;7.78;;;3.28;;
37633;SDS011;32048;49.902;22.508;2023-10-13T11:09:25;7.60;;;3.72;;
37633;SDS011;32048;49.902;22.508;2023-10-13T11:11:54;6.03;;;3.38;;
37633;SDS011;32048;49.902;22.508;2023-10-13T11:14:27;7.55;;;3.15;;
37633;SDS011;32048;49.902;22.508;2023-10-13T11:16:55;6.00;;;3.35;;
37633;SDS011;32048;49.902;22.508;2023-10-13T11:19:46;5.80;;;3.28;;
37633;SDS011;32048;49.902;22.508;2023-10-13T11:22:14;5.38;;;3.10;;
37633;SDS011;32048;49.902;22.508;2023-10-13T11:25:00;7.85;;;3.40;;
37633;SDS011;32048;49.902;22.508;2023-10-13T11:27:40;6.18;;;3.00;;
37633;SDS011;32048;49.902;22.508;2023-10-13T11:30:19;7.50;;;3.75;;
37633;SDS011;32048;49.902;22.508;2023-10-13T11:35:35;8.20;;;4.22;;
37633;SDS011;32048;49.902;22.508;2023-10-13T11:38:16;6.00;;;3.60;;
37633;SDS011;32048;49.902;22.508;2023-10-13T11:41:03;5.72;;;3.58;;
37633;SDS011;32048;49.902;22.508;2023-10-13T11:43:41;8.68;;;3.72;;
37633;SDS011;32048;49.902;22.508;2023-10-13T11:46:20;7.25;;;3.97;;
37633;SDS011;32048;49.902;22.508;2023-10-13T11:49:05;5.45;;;3.50;;
37633;SDS011;32048;49.902;22.508;2023-10-13T11:51:40;4.95;;;3.42;;
37633;SDS011;32048;49.902;22.508;2023-10-13T11:54:13;12.13;;;4.10;;
37633;SDS011;32048;49.902;22.508;2023-10-13T11:56:42;6.35;;;3.30;;
37633;SDS011;32048;49.902;22.508;2023-10-13T11:59:09;7.38;;;3.40;;
37633;SDS011;32048;49.902;22.508;2023-10-13T12:01:46;8.45;;;3.25;;
37633;SDS011;32048;49.902;22.508;2023-10-13T12:04:33;6.47;;;3.00;;
37633;SDS011;32048;49.902;22.508;2023-10-13T12:07:21;3.93;;;3.27;;
37633;SDS011;32048;49.902;22.508;2023-10-13T12:12:47;5.88;;;3.17;;
37633;SDS011;32048;49.902;22.508;2023-10-13T12:15:20;5.07;;;3.08;;
37633;SDS011;32048;49.902;22.508;2023-10-13T12:18:03;5.25;;;3.08;;
37633;SDS011;32048;49.902;22.508;2023-10-13T12:20:31;7.53;;;3.35;;
37633;SDS011;32048;49.902;22.508;2023-10-13T12:23:02;7.45;;;3.50;;
37633;SDS011;32048;49.902;22.508;2023-10-13T12:25:42;9.27;;;3.35;;
37633;SDS011;32048;49.902;22.508;2023-10-13T12:28:26;7.72;;;2.88;;
37633;SDS011;32048;49.902;22.508;2023-10-13T12:30:54;6.40;;;3.08;;
37633;SDS011;32048;49.902;22.508;2023-10-13T12:33:24;5.07;;;2.97;;
37633;SDS011;32048;49.902;22.508;2023-10-13T12:35:57;4.88;;;3.05;;
37633;SDS011;32048;49.902;22.508;2023-10-13T12:38:34;7.60;;;2.83;;
37633;SDS011;32048;49.902;22.508;2023-10-13T12:41:15;5.03;;;3.10;;
37633;SDS011;32048;49.902;22.508;2023-10-13T12:44:02;5.32;;;3.17;;
37633;SDS011;32048;49.902;22.508;2023-10-13T12:46:50;5.47;;;2.80;;
37633;SDS011;32048;49.902;22.508;2023-10-13T12:49:36;7.22;;;3.28;;
37633;SDS011;32048;49.902;22.508;2023-10-13T12:52:11;6.68;;;2.88;;
37633;SDS011;32048;49.902;22.508;2023-10-13T12:54:59;5.63;;;2.95;;
37633;SDS011;32048;49.902;22.508;2023-10-13T12:57:33;4.90;;;3.20;;
37633;SDS011;32048;49.902;22.508;2023-10-13T13:00:00;8.90;;;3.45;;
37633;SDS011;32048;49.902;22.508;2023-10-13T13:02:43;6.05;;;3.10;;
37633;SDS011;32048;49.902;22.508;2023-10-13T13:05:10;9.93;;;3.28;;
37633;SDS011;32048;49.902;22.508;2023-10-13T13:07:41;4.97;;;3.50;;
37633;SDS011;32048;49.902;22.508;2023-10-13T13:10:14;8.10;;;3.40;;
37633;SDS011;32048;49.902;22.508;2023-10-13T13:12:41;8.68;;;3.22;;
37633;SDS011;32048;49.902;22.508;2023-10-13T13:15:09;10.05;;;3.40;;
37633;SDS011;32048;49.902;22.508;2023-10-13T13:17:39;8.00;;;3.60;;
37633;SDS011;32048;49.902;22.508;2023-10-13T13:20:06;8.38;;;4.05;;
37633;SDS011;32048;49.902;22.508;2023-10-13T13:22:38;8.68;;;3.47;;
37633;SDS011;32048;49.902;22.508;2023-10-13T13:25:05;6.07;;;3.63;;
37633;SDS011;32048;49.902;22.508;2023-10-13T13:27:36;7.47;;;4.05;;
37633;SDS011;32048;49.902;22.508;2023-10-13T13:30:03;7.65;;;4.10;;
37633;SDS011;32048;49.902;22.508;2023-10-13T13:32:40;15.00;;;5.50;;
37633;SDS011;32048;49.902;22.508;2023-10-13T13:35:12;9.57;;;3.50;;
37633;SDS011;32048;49.902;22.508;2023-10-13T13:37:45;7.65;;;3.70;;
37633;SDS011;32048;49.902;22.508;2023-10-13T13:40:12;6.43;;;3.40;;
37633;SDS011;32048;49.902;22.508;2023-10-13T13:42:43;5.68;;;3.55;;
37633;SDS011;32048;49.902;22.508;2023-10-13T13:45:17;8.02;;;4.03;;
37633;SDS011;32048;49.902;22.508;2023-10-13T13:47:49;6.55;;;3.58;;
37633;SDS011;32048;49.902;22.508;2023-10-13T13:50:22;5.07;;;3.60;;
37633;SDS011;32048;49.902;22.508;2023-10-13T13:52:52;10.10;;;3.72;;
37633;SDS011;32048;49.902;22.508;2023-10-13T13:55:23;7.20;;;3.95;;
37633;SDS011;32048;49.902;22.508;2023-10-13T13:57:51;8.45;;;4.60;;
37633;SDS011;32048;49.902;22.508;2023-10-13T14:00:18;7.85;;;4.43;;
37633;SDS011;32048;49.902;22.508;2023-10-13T14:03:05;8.50;;;4.32;;
37633;SDS011;32048;49.902;22.508;2023-10-13T14:05:43;6.25;;;3.67;;
37633;SDS011;32048;49.902;22.508;2023-10-13T14:08:10;5.95;;;3.67;;
37633;SDS011;32048;49.902;22.508;2023-10-13T14:10:42;6.78;;;3.50;;
37633;SDS011;32048;49.902;22.508;2023-10-13T14:13:44;7.90;;;4.22;;
37633;SDS011;32048;49.902;22.508;2023-10-13T14:16:22;6.63;;;3.85;;
37633;SDS011;32048;49.902;22.508;2023-10-13T14:18:50;11.60;;;4.40;;
37633;SDS011;32048;49.902;22.508;2023-10-13T14:21:18;7.55;;;4.20;;
37633;SDS011;32048;49.902;22.508;2023-10-13T14:23:51;7.68;;;4.18;;
37633;SDS011;32048;49.902;22.508;2023-10-13T14:26:21;7.72;;;3.58;;
37633;SDS011;32048;49.902;22.508;2023-10-13T14:28:52;8.90;;;3.63;;
37633;SDS011;32048;49.902;22.508;2023-10-13T14:31:40;6.27;;;3.90;;
37633;SDS011;32048;49.902;22.508;2023-10-13T14:34:08;11.95;;;3.75;;
37633;SDS011;32048;49.902;22.508;2023-10-13T14:36:35;7.78;;;3.58;;
37633;SDS011;32048;49.902;22.508;2023-10-13T14:39:05;9.18;;;4.03;;
37633;SDS011;32048;49.902;22.508;2023-10-13T14:41:41;11.97;;;4.30;;
37633;SDS011;32048;49.902;22.508;2023-10-13T14:44:08;8.07;;;3.90;;
37633;SDS011;32048;49.902;22.508;2023-10-13T14:46:35;7.10;;;4.05;;
37633;SDS011;32048;49.902;22.508;2023-10-13T14:49:03;11.38;;;5.28;;
37633;SDS011;32048;49.902;22.508;2023-10-13T14:51:30;14.15;;;7.60;;
37633;SDS011;32048;49.902;22.508;2023-10-13T14:53:58;17.08;;;8.88;;
37633;SDS011;32048;49.902;22.508;2023-10-13T14:56:26;23.02;;;7.35;;
37633;SDS011;32048;49.902;22.508;2023-10-13T14:58:54;18.30;;;8.20;;
37633;SDS011;32048;49.902;22.508;2023-10-13T15:01:22;12.75;;;6.68;;
37633;SDS011;32048;49.902;22.508;2023-10-13T15:03:54;15.75;;;7.68;;
37633;SDS011;32048;49.902;22.508;2023-10-13T15:06:25;23.75;;;8.90;;
37633;SDS011;32048;49.902;22.508;2023-10-13T15:08:57;18.85;;;7.50;;
37633;SDS011;32048;49.902;22.508;2023-10-13T15:11:25;11.82;;;6.72;;
37633;SDS011;32048;49.902;22.508;2023-10-13T15:13:54;10.85;;;6.45;;
37633;SDS011;32048;49.902;22.508;2023-10-13T15:16:23;13.57;;;7.18;;
37633;SDS011;32048;49.902;22.508;2023-10-13T15:18:54;17.13;;;7.45;;
37633;SDS011;32048;49.902;22.508;2023-10-13T15:24:04;19.13;;;9.55;;
37633;SDS011;32048;49.902;22.508;2023-10-13T15:26:44;36.72;;;15.93;;
37633;SDS011;32048;49.902;22.508;2023-10-13T15:29:18;51.97;;;22.10;;
37633;SDS011;32048;49.902;22.508;2023-10-13T15:31:51;69.32;;;31.30;;
37633;SDS011;32048;49.902;22.508;2023-10-13T15:34:28;50.08;;;24.00;;
37633;SDS011;32048;49.902;22.508;2023-10-13T15:36:56;53.20;;;25.13;;
37633;SDS011;32048;49.902;22.508;2023-10-13T15:39:25;59.50;;;28.45;;
37633;SDS011;32048;49.902;22.508;2023-10-13T15:41:56;69.10;;;31.45;;
37633;SDS011;32048;49.902;22.508;2023-10-13T15:44:26;77.60;;;35.60;;
37633;SDS011;32048;49.902;22.508;2023-10-13T15:46:57;73.32;;;32.97;;
37633;SDS011;32048;49.902;22.508;2023-10-13T15:49:29;64.95;;;30.35;;
37633;SDS011;32048;49.902;22.508;2023-10-13T15:51:57;51.53;;;26.48;;
37633;SDS011;32048;49.902;22.508;2023-10-13T15:54:25;50.77;;;25.10;;
37633;SDS011;32048;49.902;22.508;2023-10-13T15:56:52;35.45;;;20.13;;
37633;SDS011;32048;49.902;22.508;2023-10-13T15:59:19;40.83;;;20.48;;
37633;SDS011;32048;49.902;22.508;2023-10-13T16:01:50;42.20;;;21.38;;
37633;SDS011;32048;49.902;22.508;2023-10-13T16:04:22;37.20;;;21.98;;